Time;durP1;ratioP1;P1;durP2;ratioP2;P2;SDS_P1;SDS_P2;PMS_P1;PMS_P2;Temp;Humidity;BMP_temperature;BMP_pressure;BME280_temperature;BME280_humidity;BME280_pressure;Samples;Min_cycle;Max_cycle;Signal;HPM_P1;HPM_P2
2022/03/09 00:00:07;;;;;;;13.40;9.00;;;;;;;-1.74;62.40;100779.22;5059790;28;20178;-59
2022/03/09 00:02:32;;;;;;;10.17;7.63;;;;;;;-1.77;62.45;100775.00;5055342;28;20217;-57
2022/03/09 00:04:57;;;;;;;14.40;8.20;;;;;;;-2.02;63.88;100779.88;5073244;28;20978;-58
2022/03/09 00:07:23;;;;;;;12.13;8.73;;;;;;;-2.06;64.43;100770.59;5072715;28;20192;-58
2022/03/09 00:09:49;;;;;;;9.50;7.37;;;;;;;-2.12;64.95;100768.03;5088759;28;20562;-57
2022/03/09 00:12:14;;;;;;;9.00;6.90;;;;;;;-2.08;64.80;100767.22;5078834;28;20269;-57
2022/03/09 00:14:39;;;;;;;12.70;8.27;;;;;;;-1.96;64.77;100768.97;5072655;28;20196;-58
2022/03/09 00:17:05;;;;;;;11.47;7.50;;;;;;;-1.92;64.51;100769.84;5055480;28;20229;-58
2022/03/09 00:19:30;;;;;;;10.00;7.10;;;;;;;-1.91;64.98;100772.41;5072559;28;20196;-59
2022/03/09 00:21:55;;;;;;;9.83;7.03;;;;;;;-1.95;64.90;100778.22;5077753;28;20224;-59
2022/03/09 00:24:21;;;;;;;9.27;7.20;;;;;;;-2.08;65.27;100774.78;5073993;28;20181;-59
2022/03/09 00:26:47;;;;;;;11.93;7.73;;;;;;;-2.07;65.38;100784.03;5072869;28;20165;-58
2022/03/09 00:29:12;;;;;;;10.77;6.87;;;;;;;-2.16;65.62;100777.25;5070903;28;20258;-58
2022/03/09 00:31:38;;;;;;;9.53;7.40;;;;;;;-2.18;65.63;100776.38;5041030;28;20574;-58
2022/03/09 00:34:03;;;;;;;11.33;7.70;;;;;;;-2.19;66.20;100774.69;5073205;28;20222;-58
2022/03/09 00:36:28;;;;;;;10.53;7.70;;;;;;;-2.08;65.77;100781.47;5072988;28;20192;-58
2022/03/09 00:38:54;;;;;;;10.30;7.43;;;;;;;-2.11;65.91;100777.25;5072171;28;20188;-58
2022/03/09 00:41:20;;;;;;;14.07;7.27;;;;;;;-2.14;66.19;100779.75;5061538;28;20240;-58
2022/03/09 00:43:45;;;;;;;13.60;7.57;;;;;;;-2.18;66.51;100781.41;5072211;28;20196;-59
2022/03/09 00:46:10;;;;;;;10.60;7.13;;;;;;;-2.31;66.57;100777.94;5071815;28;20165;-58
2022/03/09 00:48:36;;;;;;;10.43;7.37;;;;;;;-2.35;66.07;100778.72;5070750;28;20204;-60
2022/03/09 00:51:01;;;;;;;12.20;7.23;;;;;;;-2.51;66.90;100776.91;5069969;28;20307;-58
2022/03/09 00:53:26;;;;;;;13.63;8.23;;;;;;;-2.48;67.27;100776.91;5080323;28;20632;-58
2022/03/09 00:55:51;;;;;;;11.90;7.23;;;;;;;-2.46;67.66;100778.63;5072423;28;20644;-58
2022/03/09 00:58:17;;;;;;;11.63;7.10;;;;;;;-2.38;67.77;100783.75;5070731;28;20229;-58
2022/03/09 01:00:42;;;;;;;9.00;7.10;;;;;;;-2.35;67.58;100770.34;5064622;28;20220;-57
2022/03/09 01:03:08;;;;;;;15.10;8.00;;;;;;;-2.40;67.81;100779.53;5073685;28;20199;-58
2022/03/09 01:05:33;;;;;;;11.50;7.40;;;;;;;-2.36;67.76;100776.19;5072485;28;20375;-58
2022/03/09 01:07:58;;;;;;;9.80;7.07;;;;;;;-2.35;67.44;100778.72;5071846;28;20187;-58
2022/03/09 01:10:23;;;;;;;10.37;7.27;;;;;;;-2.42;67.28;100779.50;5064893;28;20233;-56
2022/03/09 01:12:49;;;;;;;11.63;6.70;;;;;;;-2.42;67.38;100782.00;5084880;28;20615;-58
2022/03/09 01:15:15;;;;;;;15.70;8.40;;;;;;;-2.46;67.62;100785.34;5071787;28;20176;-59
2022/03/09 01:17:40;;;;;;;12.33;7.93;;;;;;;-2.48;68.00;100785.34;5071088;28;20284;-58
2022/03/09 01:20:06;;;;;;;10.17;6.80;;;;;;;-2.54;68.19;100785.28;5062425;28;20188;-59
2022/03/09 01:22:32;;;;;;;14.57;8.07;;;;;;;-2.61;68.37;100793.59;5070661;28;20650;-58
2022/03/09 01:24:57;;;;;;;10.13;7.23;;;;;;;-2.65;68.42;100795.22;5070732;28;20419;-59
2022/03/09 01:27:23;;;;;;;11.90;7.23;;;;;;;-2.66;68.91;100790.19;5071257;28;20190;-58
2022/03/09 01:29:48;;;;;;;12.53;7.40;;;;;;;-2.61;68.64;100789.38;5071706;28;20204;-58
2022/03/09 01:32:13;;;;;;;11.47;8.20;;;;;;;-2.63;68.84;100788.53;5077477;28;20631;-58
2022/03/09 01:34:38;;;;;;;11.87;7.60;;;;;;;-2.60;68.80;100788.56;5072263;28;20176;-57
2022/03/09 01:37:04;;;;;;;11.80;7.47;;;;;;;-2.63;68.88;100791.06;5071903;28;20189;-59
2022/03/09 01:39:29;;;;;;;10.73;7.20;;;;;;;-2.62;68.79;100785.19;5070919;28;20210;-58
2022/03/09 01:41:55;;;;;;;13.63;7.83;;;;;;;-2.71;69.81;100779.22;5060343;28;20267;-58
2022/03/09 01:44:22;;;;;;;10.87;7.67;;;;;;;-2.76;69.57;100774.94;5069147;28;20183;-59
2022/03/09 01:46:49;;;;;;;11.40;7.53;;;;;;;-2.79;69.52;100774.06;5070502;28;20529;-57
2022/03/09 01:49:16;;;;;;;11.27;7.67;;;;;;;-2.78;69.62;100771.59;5070094;28;20818;-57
2022/03/09 01:51:44;;;;;;;9.53;7.67;;;;;;;-2.82;69.48;100774.88;5050234;28;20500;-58
2022/03/09 01:54:11;;;;;;;9.17;6.70;;;;;;;-2.80;68.66;100770.72;5068777;28;20454;-58
2022/03/09 01:56:37;;;;;;;15.13;7.73;;;;;;;-2.79;69.52;100771.56;5070116;28;20493;-59
2022/03/09 01:59:11;;;;;;;13.23;7.73;;;;;;;-2.86;69.69;100773.16;5070220;28;20835;-58
2022/03/09 02:01:36;;;;;;;11.80;7.20;;;;;;;-2.92;70.01;100763.84;5063057;28;20480;-58
2022/03/09 02:04:03;;;;;;;14.10;7.93;;;;;;;-2.97;70.79;100764.66;5087101;28;20837;-58
2022/03/09 02:06:31;;;;;;;10.77;7.17;;;;;;;-2.85;70.75;100768.97;5087035;28;20173;-57
2022/03/09 02:11:41;;;;;;;11.53;7.67;;;;;;;-2.89;70.25;100770.63;5078454;28;20994;-57
2022/03/09 02:14:37;;;;;;;9.57;7.70;;;;;;;-2.93;70.06;100769.75;5078399;28;20407;-58
2022/03/09 02:17:24;;;;;;;15.00;8.43;;;;;;;-2.90;70.27;100770.59;5074272;28;20203;-58
2022/03/09 02:19:50;;;;;;;10.90;7.43;;;;;;;-2.93;70.61;100769.75;5075032;28;20422;-57
2022/03/09 02:22:19;;;;;;;14.80;7.63;;;;;;;-2.95;71.04;100768.03;5080931;28;20833;-60
2022/03/09 02:24:45;;;;;;;10.37;7.27;;;;;;;-2.96;71.09;100766.34;5074788;28;20203;-57
2022/03/09 02:27:10;;;;;;;11.03;7.70;;;;;;;-2.94;71.45;100759.63;5073693;28;20414;-60
2022/03/09 02:29:36;;;;;;;9.53;6.60;;;;;;;-2.94;71.57;100763.00;5074239;28;20878;-58
2022/03/09 02:32:02;;;;;;;9.60;6.43;;;;;;;-2.96;71.34;100752.06;5067096;28;20216;-57
2022/03/09 02:34:28;;;;;;;9.70;7.60;;;;;;;-2.87;71.73;100753.00;5073571;28;20177;-58
2022/03/09 02:36:54;;;;;;;15.00;7.93;;;;;;;-2.78;71.43;100745.53;5090630;28;20514;-58
2022/03/09 02:39:19;;;;;;;12.10;7.83;;;;;;;-2.77;71.12;100753.13;5074413;28;20176;-57
2022/03/09 02:41:44;;;;;;;10.03;7.97;;;;;;;-2.81;70.52;100764.00;5063928;28;20236;-57
2022/03/09 02:44:10;;;;;;;12.40;7.03;;;;;;;-2.81;70.87;100763.16;5070904;28;20267;-58
2022/03/09 02:46:35;;;;;;;11.27;7.37;;;;;;;-2.84;70.58;100761.44;5074963;28;20595;-57
2022/03/09 02:49:00;;;;;;;11.83;7.37;;;;;;;-2.84;71.15;100761.44;5074197;28;20177;-57
2022/03/09 02:51:26;;;;;;;9.30;7.20;;;;;;;-2.90;71.16;100758.00;5063796;28;20507;-59
2022/03/09 02:53:51;;;;;;;11.57;8.10;;;;;;;-3.06;71.50;100757.84;5074562;28;20634;-59
2022/03/09 02:56:16;;;;;;;8.53;7.10;;;;;;;-3.11;72.03;100756.94;5072749;28;20223;-58
2022/03/09 02:58:44;;;;;;;10.47;7.73;;;;;;;-3.09;72.59;100757.78;5074244;28;20189;-58
2022/03/09 03:01:12;;;;;;;14.90;8.87;;;;;;;-3.07;72.80;100756.13;5073419;28;20543;-57
2022/03/09 03:03:39;;;;;;;13.10;8.10;;;;;;;-3.17;73.13;100759.38;5072883;28;20451;-58
2022/03/09 03:06:04;;;;;;;15.30;8.20;;;;;;;-3.30;73.61;100753.31;5073419;28;20411;-57
2022/03/09 03:08:30;;;;;;;10.37;7.80;;;;;;;-3.20;74.04;100751.78;5074202;28;20422;-58
2022/03/09 03:10:56;;;;;;;10.10;7.57;;;;;;;-3.10;74.33;100748.53;5071145;28;20756;-58
2022/03/09 03:13:21;;;;;;;10.97;8.40;;;;;;;-3.13;74.01;100756.91;5083240;28;20415;-58
2022/03/09 03:15:46;;;;;;;10.33;7.90;;;;;;;-3.09;74.46;100748.56;5074470;28;20196;-57
2022/03/09 03:18:11;;;;;;;13.00;7.83;;;;;;;-3.17;74.54;100746.78;5072400;28;20192;-58
2022/03/09 03:20:37;;;;;;;11.40;8.00;;;;;;;-3.21;75.21;100740.00;5068341;28;20239;-59
2022/03/09 03:23:02;;;;;;;16.77;8.13;;;;;;;-3.22;75.16;100744.22;5084887;28;20215;-58
2022/03/09 03:25:27;;;;;;;10.23;7.07;;;;;;;-3.09;74.99;100743.53;5074165;28;20184;-57
2022/03/09 03:27:53;;;;;;;11.03;7.33;;;;;;;-2.99;74.62;100747.03;5073846;28;20177;-57
2022/03/09 03:30:18;;;;;;;11.53;7.87;;;;;;;-2.93;74.47;100754.66;5065996;28;20197;-57
2022/03/09 03:32:43;;;;;;;11.67;8.13;;;;;;;-3.00;74.61;100757.91;5087856;28;20181;-57
2022/03/09 03:35:09;;;;;;;13.23;8.23;;;;;;;-2.98;74.44;100751.19;5074285;28;20313;-58
2022/03/09 03:37:34;;;;;;;11.73;8.73;;;;;;;-3.03;74.58;100752.00;5073488;28;20536;-58
2022/03/09 03:39:59;;;;;;;15.10;7.73;;;;;;;-3.09;74.96;100746.06;5073977;28;20620;-58
2022/03/09 03:42:25;;;;;;;14.60;7.93;;;;;;;-2.95;74.67;100751.25;5062560;28;20232;-58
2022/03/09 03:44:50;;;;;;;9.90;7.37;;;;;;;-2.98;74.43;100748.69;5073834;28;20705;-58
2022/03/09 03:47:15;;;;;;;10.57;7.03;;;;;;;-2.97;73.80;100754.56;5073448;28;20184;-58
2022/03/09 03:49:41;;;;;;;12.80;8.20;;;;;;;-3.02;73.60;100761.25;5073429;28;20227;-59
2022/03/09 03:52:06;;;;;;;11.00;7.40;;;;;;;-3.10;73.29;100771.19;5047242;28;20579;-59
2022/03/09 03:54:31;;;;;;;11.47;8.43;;;;;;;-3.13;73.10;100778.72;5064749;28;20186;-60
2022/03/09 03:56:57;;;;;;;9.73;7.53;;;;;;;-3.21;73.17;100773.59;5060429;28;20249;-59
2022/03/09 03:59:22;;;;;;;9.23;7.33;;;;;;;-3.23;72.94;100772.72;5061068;28;20275;-59
2022/03/09 04:01:48;;;;;;;11.47;7.57;;;;;;;-3.31;73.74;100772.63;5058464;28;20223;-60
2022/03/09 04:04:13;;;;;;;10.03;7.80;;;;;;;-3.29;74.18;100773.47;5062306;28;20189;-58
2022/03/09 04:06:38;;;;;;;11.83;8.37;;;;;;;-3.26;74.08;100778.56;5053651;28;20629;-58
2022/03/09 04:09:04;;;;;;;12.67;8.63;;;;;;;-3.35;74.58;100782.63;5053207;28;20184;-58
2022/03/09 04:11:29;;;;;;;11.47;7.60;;;;;;;-3.23;74.63;100776.91;5054260;28;20634;-58
2022/03/09 04:13:54;;;;;;;14.40;7.93;;;;;;;-3.40;74.71;100775.00;5057532;28;20174;-59
2022/03/09 04:16:20;;;;;;;11.90;8.07;;;;;;;-3.47;74.39;100774.09;5053015;28;20270;-59
2022/03/09 04:18:45;;;;;;;16.27;8.43;;;;;;;-3.45;74.45;100779.13;5051363;28;20165;-57
2022/03/09 04:21:11;;;;;;;12.57;8.13;;;;;;;-3.63;75.57;100777.22;5051766;28;20298;-57
2022/03/09 04:23:36;;;;;;;16.00;8.20;;;;;;;-3.58;75.93;100775.59;5059878;28;20636;-58
2022/03/09 04:26:01;;;;;;;10.90;7.63;;;;;;;-3.48;75.96;100774.06;5053230;28;20604;-59
2022/03/09 04:28:27;;;;;;;15.50;8.07;;;;;;;-3.68;75.55;100781.31;5058389;28;20196;-59
2022/03/09 04:30:52;;;;;;;13.80;8.00;;;;;;;-3.59;75.31;100783.97;5029126;28;20246;-58
2022/03/09 04:33:17;;;;;;;16.70;8.30;;;;;;;-3.56;75.53;100773.94;5061639;28;20181;-59
2022/03/09 04:35:43;;;;;;;9.67;7.10;;;;;;;-3.58;75.81;100770.56;5053116;28;20177;-58
2022/03/09 04:38:08;;;;;;;11.20;8.03;;;;;;;-3.58;76.07;100776.44;5066024;28;20188;-58
2022/03/09 04:40:33;;;;;;;14.93;8.17;;;;;;;-3.60;76.13;100772.22;5059940;28;20626;-59
2022/03/09 04:42:59;;;;;;;16.83;8.20;;;;;;;-3.64;76.21;100775.53;5071757;28;20279;-59
2022/03/09 04:45:24;;;;;;;14.00;8.57;;;;;;;-3.66;76.65;100765.44;5071235;28;20276;-58
2022/03/09 04:47:49;;;;;;;11.93;7.77;;;;;;;-3.62;76.74;100772.19;5072097;28;20203;-58
2022/03/09 04:50:15;;;;;;;14.77;8.27;;;;;;;-3.67;77.00;100773.81;5062220;28;20223;-57
2022/03/09 04:52:40;;;;;;;13.63;8.17;;;;;;;-3.58;76.92;100773.94;5062213;28;20177;-58
2022/03/09 04:55:06;;;;;;;10.53;7.60;;;;;;;-3.58;77.18;100773.94;5071277;28;20264;-58
2022/03/09 04:57:31;;;;;;;14.13;8.03;;;;;;;-3.64;77.20;100780.53;5070329;28;20243;-58
2022/03/09 04:59:56;;;;;;;11.77;7.63;;;;;;;-3.65;77.31;100777.16;5072405;28;20403;-59
2022/03/09 05:02:22;;;;;;;13.97;9.90;;;;;;;-3.75;78.17;100772.84;5061039;28;20765;-59
2022/03/09 05:04:47;;;;;;;13.40;8.13;;;;;;;-3.83;78.82;100771.88;5071244;28;20231;-58
2022/03/09 05:07:12;;;;;;;15.73;7.93;;;;;;;-3.92;79.62;100770.06;5072685;28;20183;-57
2022/03/09 05:09:38;;;;;;;15.33;8.60;;;;;;;-3.82;79.84;100769.41;5071782;28;20211;-58
2022/03/09 05:12:05;;;;;;;12.03;8.40;;;;;;;-3.68;79.46;100766.22;5047301;28;20256;-58
2022/03/09 05:14:31;;;;;;;11.57;8.17;;;;;;;-3.67;79.23;100776.31;5072185;28;20193;-57
2022/03/09 05:16:56;;;;;;;9.80;7.60;;;;;;;-3.57;78.92;100772.28;5072035;28;20410;-57
2022/03/09 05:19:21;;;;;;;12.27;8.37;;;;;;;-3.77;78.80;100787.91;5071886;28;20181;-58
2022/03/09 05:21:47;;;;;;;11.63;8.00;;;;;;;-3.77;79.06;100782.88;5061209;28;20237;-58
2022/03/09 05:24:12;;;;;;;12.30;8.17;;;;;;;-3.75;78.41;100782.88;5071787;28;20624;-59
2022/03/09 05:26:37;;;;;;;11.80;7.40;;;;;;;-3.66;78.36;100777.16;5072084;28;20200;-59
2022/03/09 05:29:03;;;;;;;12.10;8.27;;;;;;;-3.69;78.21;100782.16;5070839;28;20256;-58
2022/03/09 05:31:29;;;;;;;11.57;8.67;;;;;;;-3.77;78.31;100790.41;5073071;28;20228;-58
2022/03/09 05:33:54;;;;;;;12.90;8.20;;;;;;;-3.87;78.40;100795.28;5076699;28;20207;-59
2022/03/09 05:36:19;;;;;;;12.97;8.87;;;;;;;-3.90;78.82;100786.00;5072093;28;20188;-59
2022/03/09 05:38:45;;;;;;;14.33;8.07;;;;;;;-3.97;79.00;100784.22;5071456;28;20257;-58
2022/03/09 05:41:10;;;;;;;12.77;8.77;;;;;;;-3.96;79.28;100790.94;5063602;28;20228;-57
2022/03/09 05:43:36;;;;;;;14.30;8.43;;;;;;;-4.06;79.78;100795.84;5078307;28;20229;-58
2022/03/09 05:46:01;;;;;;;13.93;9.27;;;;;;;-4.07;79.90;100800.81;5071547;28;20212;-58
2022/03/09 05:48:26;;;;;;;12.53;8.97;;;;;;;-4.01;80.31;100800.09;5071158;28;20176;-59
2022/03/09 05:50:52;;;;;;;14.73;9.00;;;;;;;-4.03;80.53;100799.19;5068267;28;20370;-58
2022/03/09 05:53:17;;;;;;;13.97;9.20;;;;;;;-3.96;81.38;100801.84;5080775;28;20588;-59
2022/03/09 05:55:42;;;;;;;13.93;9.00;;;;;;;-3.89;81.04;100812.84;5071882;28;20188;-59
2022/03/09 05:58:07;;;;;;;11.80;8.30;;;;;;;-3.87;80.90;100818.72;5071099;28;20687;-58
2022/03/09 06:00:34;;;;;;;12.20;8.90;;;;;;;-3.90;80.93;100818.69;5061056;28;20232;-61
2022/03/09 06:02:59;;;;;;;13.33;9.17;;;;;;;-3.78;80.56;100826.44;5070863;28;20177;-58
2022/03/09 06:05:25;;;;;;;20.37;9.07;;;;;;;-3.82;80.30;100829.72;5071535;28;20433;-58
2022/03/09 06:07:50;;;;;;;13.77;9.17;;;;;;;-3.75;80.40;100823.94;5071257;28;20217;-57
2022/03/09 06:10:15;;;;;;;10.77;8.60;;;;;;;-3.82;80.45;100821.31;5061156;28;20669;-58
2022/03/09 06:12:41;;;;;;;18.10;8.67;;;;;;;-3.76;80.51;100827.31;5055696;28;20184;-58
2022/03/09 06:15:07;;;;;;;12.63;9.07;;;;;;;-3.69;80.62;100824.91;5067539;28;20584;-61
2022/03/09 06:17:32;;;;;;;18.93;9.37;;;;;;;-3.69;79.96;100830.75;5050065;28;20523;-58
2022/03/09 06:19:57;;;;;;;17.03;9.63;;;;;;;-3.63;79.86;100830.03;5050971;28;20193;-58
2022/03/09 06:22:23;;;;;;;13.90;9.40;;;;;;;-3.69;79.92;100827.41;5056351;28;20303;-60
2022/03/09 06:24:48;;;;;;;13.20;9.83;;;;;;;-3.73;80.30;100834.06;5055786;28;20177;-59
2022/03/09 06:27:13;;;;;;;15.93;10.37;;;;;;;-3.61;80.44;100835.91;5058164;28;20520;-64
2022/03/09 06:29:39;;;;;;;15.93;10.20;;;;;;;-3.52;80.10;100840.22;5051841;28;20201;-59
2022/03/09 06:32:04;;;;;;;14.20;9.60;;;;;;;-3.41;79.83;100841.25;5055978;28;20223;-59
2022/03/09 06:34:30;;;;;;;17.63;9.40;;;;;;;-3.38;79.41;100846.31;5071608;28;20206;-59
2022/03/09 06:36:55;;;;;;;13.33;10.87;;;;;;;-3.16;79.23;100841.56;5049414;28;20589;-58
2022/03/09 06:39:20;;;;;;;14.93;9.67;;;;;;;-2.99;78.13;100844.34;5050100;28;20185;-60
2022/03/09 06:41:46;;;;;;;23.43;10.03;;;;;;;-2.70;77.28;100846.41;5053472;28;20251;-60
2022/03/09 06:44:13;;;;;;;13.43;9.60;;;;;;;-2.32;76.40;100845.94;5052862;28;20185;-58
2022/03/09 06:46:40;;;;;;;17.00;9.67;;;;;;;-1.73;74.03;100849.88;5053206;28;20186;-60
2022/03/09 06:49:05;;;;;;;24.13;9.97;;;;;;;-0.54;70.94;100847.19;5051501;28;20932;-60
2022/03/09 06:51:30;;;;;;;15.27;9.73;;;;;;;1.14;62.72;100841.22;5057055;28;20469;-59
2022/03/09 06:53:56;;;;;;;15.67;8.77;;;;;;;3.35;55.29;100841.13;5054485;28;20181;-59
2022/03/09 06:56:21;;;;;;;16.23;8.77;;;;;;;5.24;47.93;100841.44;5051142;28;20259;-59
2022/03/09 06:58:47;;;;;;;10.23;8.03;;;;;;;6.50;43.68;100836.03;5055071;28;20640;-60
2022/03/09 07:01:12;;;;;;;13.90;8.93;;;;;;;7.79;40.33;100831.56;5052803;28;21035;-59
2022/03/09 07:03:38;;;;;;;14.67;8.57;;;;;;;8.98;37.71;100835.31;5052693;28;20276;-58
2022/03/09 07:06:04;;;;;;;14.20;8.43;;;;;;;10.10;35.30;100844.75;5052391;28;20197;-61
2022/03/09 07:08:30;;;;;;;12.37;8.47;;;;;;;11.44;32.89;100850.19;5053430;28;20257;-60
2022/03/09 07:10:55;;;;;;;12.73;8.60;;;;;;;12.39;31.16;100847.38;5050459;28;20714;-59
2022/03/09 07:13:20;;;;;;;14.23;8.40;;;;;;;13.28;29.62;100846.22;5062340;28;20319;-59
2022/03/09 07:15:46;;;;;;;16.33;9.60;;;;;;;13.92;28.51;100853.97;5053988;28;20670;-60
2022/03/09 07:18:11;;;;;;;15.00;8.50;;;;;;;14.94;26.91;100865.38;5053688;28;20193;-59
2022/03/09 07:20:37;;;;;;;12.50;8.73;;;;;;;15.60;25.81;100865.59;5047925;28;20220;-59
2022/03/09 07:23:02;;;;;;;11.47;9.53;;;;;;;15.78;25.43;100869.63;5052989;28;20180;-59
2022/03/09 07:25:28;;;;;;;17.03;9.17;;;;;;;15.69;25.09;100874.56;5053958;28;20726;-59
2022/03/09 07:27:53;;;;;;;14.10;8.20;;;;;;;16.30;24.39;100869.78;5053964;28;20208;-60
2022/03/09 07:30:19;;;;;;;11.23;8.07;;;;;;;16.75;23.72;100877.16;5044997;28;20317;-58
2022/03/09 07:32:44;;;;;;;10.63;7.17;;;;;;;17.14;22.77;100887.53;5067126;28;20620;-60
2022/03/09 07:35:10;;;;;;;8.40;7.17;;;;;;;17.26;22.28;100891.88;5053550;28;20195;-60
2022/03/09 07:37:36;;;;;;;13.05;8.65;;;;;;;15.31;24.33;100891.59;5051204;28;20466;-60
2022/03/09 07:40:04;;;;;;;9.57;7.47;;;;;;;13.91;25.98;100893.69;5054542;28;20288;-62
2022/03/09 07:42:29;;;;;;;13.33;7.27;;;;;;;13.84;26.19;100889.78;5068781;28;20217;-60
2022/03/09 07:44:55;;;;;;;11.03;8.03;;;;;;;13.99;26.10;100894.09;5067101;28;20294;-60
2022/03/09 07:47:20;;;;;;;9.47;7.43;;;;;;;14.40;25.88;100890.06;5071050;28;20273;-59
2022/03/09 07:49:45;;;;;;;10.57;7.60;;;;;;;14.28;26.06;100891.59;5072015;28;20196;-59
2022/03/09 07:52:11;;;;;;;9.60;8.13;;;;;;;12.62;28.53;100894.41;5064573;28;20239;-60
2022/03/09 07:54:36;;;;;;;10.60;8.20;;;;;;;12.13;29.23;100889.09;5073793;28;20204;-60
2022/03/09 07:57:02;;;;;;;12.27;7.73;;;;;;;13.30;27.89;100901.25;5073517;28;20271;-60
2022/03/09 07:59:27;;;;;;;8.73;7.43;;;;;;;12.57;27.88;100904.16;5071575;28;20533;-59
2022/03/09 08:01:55;;;;;;;12.90;8.10;;;;;;;11.12;30.26;100898.84;5051724;28;20236;-58
2022/03/09 08:04:22;;;;;;;9.23;8.23;;;;;;;9.60;31.87;100899.81;5071058;28;20295;-59
2022/03/09 08:06:51;;;;;;;12.37;7.97;;;;;;;7.71;35.03;100900.09;5071982;28;20226;-59
2022/03/09 08:09:17;;;;;;;13.37;8.47;;;;;;;6.73;37.36;100897.63;5071307;28;20176;-59
2022/03/09 08:11:43;;;;;;;11.83;9.00;;;;;;;6.50;37.95;100895.69;5051445;28;20229;-61
2022/03/09 08:14:09;;;;;;;8.67;7.27;;;;;;;6.51;37.67;100893.97;5069739;28;20535;-59
2022/03/09 08:16:35;;;;;;;14.73;7.83;;;;;;;5.72;39.10;100904.25;5052133;28;20267;-61
2022/03/09 08:19:00;;;;;;;10.73;7.50;;;;;;;5.06;40.54;100906.41;5067437;28;20230;-59
2022/03/09 08:21:25;;;;;;;10.30;7.47;;;;;;;4.46;42.04;100910.81;5061969;28;20232;-59
2022/03/09 08:23:51;;;;;;;10.97;7.20;;;;;;;4.37;42.30;100916.09;5072499;28;20646;-59
2022/03/09 08:26:16;;;;;;;12.37;7.53;;;;;;;4.54;41.81;100908.19;5072943;28;20185;-58
2022/03/09 08:28:42;;;;;;;12.43;6.80;;;;;;;4.35;42.21;100917.81;5072235;28;20181;-59
2022/03/09 08:31:07;;;;;;;11.73;7.70;;;;;;;3.98;43.20;100913.25;5035035;28;20224;-59
2022/03/09 08:33:32;;;;;;;11.80;6.67;;;;;;;3.80;43.75;100922.00;5063859;28;20177;-60
2022/03/09 08:35:59;;;;;;;9.20;7.17;;;;;;;3.66;44.52;100919.59;5072973;28;20177;-57
2022/03/09 08:38:24;;;;;;;9.80;7.30;;;;;;;3.60;44.54;100922.22;5054551;28;20227;-60
2022/03/09 08:40:49;;;;;;;11.33;7.20;;;;;;;3.35;44.65;100912.34;5062390;28;20706;-59
2022/03/09 08:43:15;;;;;;;18.83;8.27;;;;;;;3.34;45.58;100928.50;5066129;28;20217;-58
2022/03/09 08:45:40;;;;;;;12.13;8.47;;;;;;;3.26;46.22;100927.72;5072730;28;20188;-59
2022/03/09 08:48:05;;;;;;;10.57;7.17;;;;;;;3.38;45.33;100925.03;5072252;28;20623;-59
2022/03/09 08:50:31;;;;;;;16.60;7.70;;;;;;;3.25;45.83;100931.13;5066179;28;20238;-58
2022/03/09 08:52:57;;;;;;;11.63;8.13;;;;;;;3.60;45.49;100928.19;5071471;28;20641;-60
2022/03/09 08:55:22;;;;;;;11.97;6.93;;;;;;;3.64;45.42;100922.19;5071079;28;20569;-58
2022/03/09 08:57:47;;;;;;;15.73;7.30;;;;;;;3.70;44.75;100924.66;5072033;28;20216;-59
2022/03/09 09:00:13;;;;;;;13.07;7.10;;;;;;;3.70;45.02;100922.09;5062017;28;20173;-59
2022/03/09 09:02:39;;;;;;;10.37;7.10;;;;;;;4.04;44.43;100915.72;5056240;28;20179;-60
2022/03/09 09:05:04;;;;;;;13.97;7.23;;;;;;;4.09;43.92;100919.03;5072756;28;20202;-59
2022/03/09 09:07:30;;;;;;;13.17;7.63;;;;;;;4.26;43.68;100907.78;5071672;28;20635;-58
2022/03/09 09:09:55;;;;;;;12.70;6.97;;;;;;;4.53;43.22;100909.88;5072099;28;20199;-58
2022/03/09 09:12:20;;;;;;;11.50;7.83;;;;;;;5.20;42.29;100913.81;5060701;28;20228;-59
2022/03/09 09:14:46;;;;;;;9.37;7.33;;;;;;;6.17;40.03;100907.56;5072160;28;20587;-61
2022/03/09 09:17:11;;;;;;;10.53;7.17;;;;;;;7.43;37.80;100901.75;5072172;28;20189;-59
2022/03/09 09:19:36;;;;;;;10.57;7.53;;;;;;;9.55;34.23;100899.16;5070690;28;20181;-59
2022/03/09 09:22:03;;;;;;;8.90;7.50;;;;;;;10.77;31.14;100894.31;5060602;28;20232;-59
2022/03/09 09:24:29;;;;;;;8.90;6.93;;;;;;;10.87;30.02;100892.19;5070333;28;20195;-59
2022/03/09 09:26:54;;;;;;;9.60;7.60;;;;;;;13.03;27.71;100888.88;5071703;28;20540;-59
2022/03/09 09:29:19;;;;;;;10.27;7.70;;;;;;;14.48;26.05;100884.44;5069977;28;20205;-60
2022/03/09 09:31:47;;;;;;;10.33;7.53;;;;;;;15.61;24.31;100894.03;5049313;28;20251;-59
2022/03/09 09:34:12;;;;;;;7.80;7.10;;;;;;;15.70;23.32;100889.19;5071760;28;20169;-60
2022/03/09 09:36:41;;;;;;;7.77;6.73;;;;;;;17.59;21.91;100887.84;5071887;28;20271;-58
2022/03/09 09:39:06;;;;;;;16.00;7.43;;;;;;;18.66;20.59;100887.84;5070576;28;20175;-61
2022/03/09 09:41:33;;;;;;;11.43;9.30;;;;;;;18.27;20.34;100887.31;5063647;28;20254;-59
2022/03/09 09:43:59;;;;;;;7.80;7.00;;;;;;;18.80;19.96;100892.00;5066197;28;20218;-59
2022/03/09 09:46:25;;;;;;;10.30;7.57;;;;;;;20.07;19.07;100882.91;5070382;28;20313;-59
2022/03/09 09:48:50;;;;;;;8.17;7.07;;;;;;;21.33;17.91;100888.03;5071387;28;20194;-58
2022/03/09 09:51:16;;;;;;;10.10;7.30;;;;;;;22.11;16.78;100882.03;5070597;28;20224;-66
2022/03/09 09:53:43;;;;;;;10.80;7.20;;;;;;;19.22;18.73;100881.81;5077740;28;20707;-61
2022/03/09 09:56:09;;;;;;;9.93;7.53;;;;;;;19.96;18.29;100888.19;5071286;28;20180;-59
2022/03/09 09:58:36;;;;;;;11.13;7.73;;;;;;;20.33;17.92;100879.91;5069956;28;20184;-58
2022/03/09 10:01:02;;;;;;;9.33;7.27;;;;;;;19.77;18.13;100880.97;5055228;28;20243;-58
2022/03/09 10:03:27;;;;;;;9.10;7.27;;;;;;;19.27;18.64;100887.50;5071007;28;20184;-59
2022/03/09 10:05:52;;;;;;;8.43;6.93;;;;;;;19.33;18.70;100894.03;5071224;28;20184;-60
2022/03/09 10:08:18;;;;;;;8.70;6.77;;;;;;;18.25;18.42;100881.41;5069358;28;20196;-59
2022/03/09 10:11:00;;;;;;;8.93;6.23;;;;;;;18.04;19.49;100877.66;5059899;28;20277;-59
2022/03/09 10:13:26;;;;;;;7.03;6.43;;;;;;;17.86;19.00;100874.59;5057568;28;20202;-58
2022/03/09 10:16:15;;;;;;;7.53;6.80;;;;;;;18.53;19.04;100874.91;5069141;28;20193;-58
2022/03/09 10:18:48;;;;;;;7.37;6.67;;;;;;;18.42;18.75;100885.31;5050856;28;20459;-58
2022/03/09 10:21:17;;;;;;;8.00;7.00;;;;;;;18.58;18.57;100885.00;5052758;28;20212;-58
2022/03/09 10:24:05;;;;;;;9.63;6.60;;;;;;;19.67;17.14;100878.25;5066930;28;20611;-58
2022/03/09 10:26:38;;;;;;;6.87;6.17;;;;;;;19.99;17.84;100885.28;5050743;28;20260;-57
2022/03/09 10:29:06;;;;;;;7.53;6.33;;;;;;;20.10;17.42;100882.63;5057060;28;20180;-57
2022/03/09 10:31:35;;;;;;;9.43;6.17;;;;;;;18.48;18.32;100877.03;5061617;28;20235;-57
2022/03/09 10:34:07;;;;;;;7.53;6.77;;;;;;;18.63;18.26;100880.25;5074889;28;20169;-57
2022/03/09 10:36:32;;;;;;;7.87;6.00;;;;;;;17.13;19.98;100893.69;5074004;28;20211;-57
2022/03/09 10:39:16;;;;;;;9.03;7.03;;;;;;;14.52;23.57;100888.50;5066172;28;20184;-57
2022/03/09 10:41:43;;;;;;;10.27;7.30;;;;;;;14.17;23.80;100891.38;5063841;28;20235;-59
2022/03/09 10:44:09;;;;;;;8.13;6.40;;;;;;;12.87;26.24;100896.56;5062991;28;20181;-60
2022/03/09 10:46:50;;;;;;;8.53;7.07;;;;;;;11.25;29.25;100897.38;5056768;28;20190;-59
2022/03/09 10:49:19;;;;;;;9.07;7.50;;;;;;;10.35;30.03;100892.59;5052599;28;20223;-59
2022/03/09 10:51:50;;;;;;;8.13;7.17;;;;;;;9.76;29.25;100886.34;5057175;28;20224;-59
2022/03/09 10:54:25;;;;;;;10.90;7.10;;;;;;;8.97;31.03;100887.53;5056519;28;20235;-60
2022/03/09 10:57:10;;;;;;;7.70;7.00;;;;;;;8.72;33.30;100878.09;5052628;28;20319;-59
2022/03/09 10:59:51;;;;;;;9.50;7.53;;;;;;;8.76;33.25;100881.41;5052671;28;20663;-60
2022/03/09 11:02:19;;;;;;;10.27;7.27;;;;;;;8.60;32.33;100875.97;5078658;28;20284;-60
2022/03/09 11:05:09;;;;;;;9.00;6.77;;;;;;;8.39;32.68;100867.22;5088169;28;20177;-59
2022/03/09 11:07:36;;;;;;;8.03;7.23;;;;;;;8.52;33.05;100873.66;5052395;28;20192;-60
2022/03/09 11:10:01;;;;;;;12.97;7.17;;;;;;;8.74;32.58;100867.78;5052373;28;20194;-59
2022/03/09 11:12:28;;;;;;;8.73;7.73;;;;;;;9.05;32.43;100866.72;5058975;28;20252;-59
2022/03/09 11:14:54;;;;;;;8.60;7.00;;;;;;;8.84;31.62;100855.47;5054150;28;20563;-61
2022/03/09 11:17:22;;;;;;;9.60;7.00;;;;;;;8.77;30.73;100861.72;5053247;28;20184;-61